Terminal Aerodrome Forecast
Issued by NWS

Home | Current Version | Previous Version | Text Only | Print | Product List | Glossary On
Versions: 1 2 3 4 5 6 7 8 9 10 11 12 13 14 15
000
FTAK31 PAFA 242320
TAFAOT
TAF
PAOT 242320Z 2500/2524 03008KT 1 1/2SM -SN BR OVC015
     FM250300 06008KT 2SM -SN BR BKN015 OVC025
     FM250600 09008KT 2SM -SN BR BKN015 OVC025=

USA.gov is the U.S. government's official web portal to all federal, state and local government web resources and services.